sensor_id;sensor_type;location;lat;lon;timestamp;P1;durP1;ratioP1;P2;durP2;ratioP2
12429;SDS011;6279;42.192;24.326;2022-12-18T00:01:28;22.13;;;18.03;;
12429;SDS011;6279;42.192;24.326;2022-12-18T00:03:54;22.43;;;16.37;;
12429;SDS011;6279;42.192;24.326;2022-12-18T00:06:20;19.40;;;15.80;;
12429;SDS011;6279;42.192;24.326;2022-12-18T00:08:47;21.93;;;16.63;;
12429;SDS011;6279;42.192;24.326;2022-12-18T00:11:14;19.37;;;13.50;;
12429;SDS011;6279;42.192;24.326;2022-12-18T00:13:41;17.40;;;12.43;;
12429;SDS011;6279;42.192;24.326;2022-12-18T00:16:07;16.87;;;11.87;;
12429;SDS011;6279;42.192;24.326;2022-12-18T00:18:35;15.67;;;12.30;;
12429;SDS011;6279;42.192;24.326;2022-12-18T00:21:03;18.10;;;12.37;;
12429;SDS011;6279;42.192;24.326;2022-12-18T00:23:31;20.93;;;12.20;;
12429;SDS011;6279;42.192;24.326;2022-12-18T00:25:58;16.03;;;12.50;;
12429;SDS011;6279;42.192;24.326;2022-12-18T00:28:25;13.97;;;11.97;;
12429;SDS011;6279;42.192;24.326;2022-12-18T00:30:50;14.83;;;11.87;;
12429;SDS011;6279;42.192;24.326;2022-12-18T00:33:17;18.03;;;11.50;;
12429;SDS011;6279;42.192;24.326;2022-12-18T00:35:42;15.23;;;11.30;;
12429;SDS011;6279;42.192;24.326;2022-12-18T00:38:08;13.93;;;11.73;;
12429;SDS011;6279;42.192;24.326;2022-12-18T00:40:33;13.43;;;10.07;;
12429;SDS011;6279;42.192;24.326;2022-12-18T00:42:58;14.90;;;11.10;;
12429;SDS011;6279;42.192;24.326;2022-12-18T00:45:25;14.33;;;11.27;;
12429;SDS011;6279;42.192;24.326;2022-12-18T00:47:51;15.73;;;11.13;;
12429;SDS011;6279;42.192;24.326;2022-12-18T00:50:17;13.60;;;11.07;;
12429;SDS011;6279;42.192;24.326;2022-12-18T00:52:43;15.80;;;11.60;;
12429;SDS011;6279;42.192;24.326;2022-12-18T00:55:09;12.57;;;10.40;;
12429;SDS011;6279;42.192;24.326;2022-12-18T00:57:35;15.03;;;10.77;;
12429;SDS011;6279;42.192;24.326;2022-12-18T01:00:01;14.43;;;10.70;;
12429;SDS011;6279;42.192;24.326;2022-12-18T01:02:26;19.73;;;14.90;;
12429;SDS011;6279;42.192;24.326;2022-12-18T01:04:52;21.10;;;16.40;;
12429;SDS011;6279;42.192;24.326;2022-12-18T01:07:17;20.27;;;17.20;;
12429;SDS011;6279;42.192;24.326;2022-12-18T01:09:42;27.63;;;20.17;;
12429;SDS011;6279;42.192;24.326;2022-12-18T01:12:08;22.53;;;17.00;;
12429;SDS011;6279;42.192;24.326;2022-12-18T01:14:33;19.23;;;12.53;;
12429;SDS011;6279;42.192;24.326;2022-12-18T01:16:58;15.80;;;12.47;;
12429;SDS011;6279;42.192;24.326;2022-12-18T01:19:24;14.47;;;11.77;;
12429;SDS011;6279;42.192;24.326;2022-12-18T01:21:49;13.93;;;11.30;;
12429;SDS011;6279;42.192;24.326;2022-12-18T01:24:15;12.27;;;9.40;;
12429;SDS011;6279;42.192;24.326;2022-12-18T01:26:40;11.57;;;10.10;;
12429;SDS011;6279;42.192;24.326;2022-12-18T01:29:06;13.17;;;9.70;;
12429;SDS011;6279;42.192;24.326;2022-12-18T01:31:32;11.93;;;9.40;;
12429;SDS011;6279;42.192;24.326;2022-12-18T01:34:04;11.50;;;9.30;;
12429;SDS011;6279;42.192;24.326;2022-12-18T01:36:31;11.23;;;9.10;;
12429;SDS011;6279;42.192;24.326;2022-12-18T01:39:02;11.57;;;9.30;;
12429;SDS011;6279;42.192;24.326;2022-12-18T01:41:31;14.37;;;9.67;;
12429;SDS011;6279;42.192;24.326;2022-12-18T01:47:18;12.47;;;9.67;;
12429;SDS011;6279;42.192;24.326;2022-12-18T01:50:13;16.03;;;9.70;;
12429;SDS011;6279;42.192;24.326;2022-12-18T01:52:42;11.37;;;10.13;;
12429;SDS011;6279;42.192;24.326;2022-12-18T01:55:10;12.00;;;10.27;;
12429;SDS011;6279;42.192;24.326;2022-12-18T01:57:37;12.03;;;8.23;;
12429;SDS011;6279;42.192;24.326;2022-12-18T02:00:11;12.87;;;8.77;;
12429;SDS011;6279;42.192;24.326;2022-12-18T02:02:39;12.23;;;8.50;;
12429;SDS011;6279;42.192;24.326;2022-12-18T02:05:06;12.10;;;9.23;;
12429;SDS011;6279;42.192;24.326;2022-12-18T02:10:15;10.93;;;7.53;;
12429;SDS011;6279;42.192;24.326;2022-12-18T02:12:56;9.27;;;7.93;;
12429;SDS011;6279;42.192;24.326;2022-12-18T02:18:08;11.03;;;8.63;;
12429;SDS011;6279;42.192;24.326;2022-12-18T02:20:42;10.40;;;8.27;;
12429;SDS011;6279;42.192;24.326;2022-12-18T02:23:16;9.90;;;7.93;;
12429;SDS011;6279;42.192;24.326;2022-12-18T02:26:12;9.27;;;7.60;;
12429;SDS011;6279;42.192;24.326;2022-12-18T02:28:53;9.53;;;7.57;;
12429;SDS011;6279;42.192;24.326;2022-12-18T02:31:23;9.43;;;7.70;;
12429;SDS011;6279;42.192;24.326;2022-12-18T02:33:53;10.50;;;7.40;;
12429;SDS011;6279;42.192;24.326;2022-12-18T02:36:21;10.30;;;7.53;;
12429;SDS011;6279;42.192;24.326;2022-12-18T02:38:48;8.30;;;6.33;;
12429;SDS011;6279;42.192;24.326;2022-12-18T02:41:16;9.07;;;6.30;;
12429;SDS011;6279;42.192;24.326;2022-12-18T02:43:49;7.50;;;6.40;;
12429;SDS011;6279;42.192;24.326;2022-12-18T02:46:25;11.40;;;7.23;;
12429;SDS011;6279;42.192;24.326;2022-12-18T02:48:52;8.73;;;6.93;;
12429;SDS011;6279;42.192;24.326;2022-12-18T02:51:42;8.03;;;6.80;;
12429;SDS011;6279;42.192;24.326;2022-12-18T03:00:20;8.10;;;6.17;;
12429;SDS011;6279;42.192;24.326;2022-12-18T03:02:56;8.60;;;6.00;;
12429;SDS011;6279;42.192;24.326;2022-12-18T03:05:30;7.87;;;6.33;;
12429;SDS011;6279;42.192;24.326;2022-12-18T03:08:02;7.27;;;5.57;;
12429;SDS011;6279;42.192;24.326;2022-12-18T03:10:32;8.00;;;5.90;;
12429;SDS011;6279;42.192;24.326;2022-12-18T03:13:12;6.93;;;5.33;;
12429;SDS011;6279;42.192;24.326;2022-12-18T03:15:42;7.80;;;5.60;;
12429;SDS011;6279;42.192;24.326;2022-12-18T03:18:16;6.43;;;5.30;;
12429;SDS011;6279;42.192;24.326;2022-12-18T03:20:44;6.20;;;4.90;;
12429;SDS011;6279;42.192;24.326;2022-12-18T03:23:14;7.93;;;5.27;;
12429;SDS011;6279;42.192;24.326;2022-12-18T03:25:42;7.57;;;5.07;;
12429;SDS011;6279;42.192;24.326;2022-12-18T03:28:12;6.33;;;4.83;;
12429;SDS011;6279;42.192;24.326;2022-12-18T03:30:39;5.60;;;4.33;;
12429;SDS011;6279;42.192;24.326;2022-12-18T03:36:23;6.57;;;4.40;;
12429;SDS011;6279;42.192;24.326;2022-12-18T03:38:49;4.23;;;3.83;;
12429;SDS011;6279;42.192;24.326;2022-12-18T03:41:17;6.07;;;4.70;;
12429;SDS011;6279;42.192;24.326;2022-12-18T03:46:46;5.07;;;4.00;;
12429;SDS011;6279;42.192;24.326;2022-12-18T03:49:32;5.57;;;4.27;;
12429;SDS011;6279;42.192;24.326;2022-12-18T03:52:11;5.57;;;3.87;;
12429;SDS011;6279;42.192;24.326;2022-12-18T03:54:42;7.17;;;3.53;;
12429;SDS011;6279;42.192;24.326;2022-12-18T03:57:11;7.07;;;4.20;;
12429;SDS011;6279;42.192;24.326;2022-12-18T03:59:50;5.03;;;3.77;;
12429;SDS011;6279;42.192;24.326;2022-12-18T04:02:20;4.97;;;3.57;;
12429;SDS011;6279;42.192;24.326;2022-12-18T04:04:48;5.20;;;4.03;;
12429;SDS011;6279;42.192;24.326;2022-12-18T04:07:18;5.20;;;3.83;;
12429;SDS011;6279;42.192;24.326;2022-12-18T04:09:46;4.23;;;3.60;;
12429;SDS011;6279;42.192;24.326;2022-12-18T04:12:14;5.73;;;4.13;;
12429;SDS011;6279;42.192;24.326;2022-12-18T04:14:39;6.03;;;4.27;;
12429;SDS011;6279;42.192;24.326;2022-12-18T04:17:05;7.93;;;4.17;;
12429;SDS011;6279;42.192;24.326;2022-12-18T04:19:30;4.80;;;4.27;;
12429;SDS011;6279;42.192;24.326;2022-12-18T04:21:56;4.43;;;4.03;;
12429;SDS011;6279;42.192;24.326;2022-12-18T04:24:21;7.93;;;4.60;;
12429;SDS011;6279;42.192;24.326;2022-12-18T04:26:46;5.00;;;4.20;;
12429;SDS011;6279;42.192;24.326;2022-12-18T04:29:12;5.00;;;4.47;;
12429;SDS011;6279;42.192;24.326;2022-12-18T04:31:37;5.13;;;4.40;;
12429;SDS011;6279;42.192;24.326;2022-12-18T04:34:03;4.23;;;3.63;;
12429;SDS011;6279;42.192;24.326;2022-12-18T04:36:28;4.77;;;4.20;;
12429;SDS011;6279;42.192;24.326;2022-12-18T04:38:54;4.73;;;3.83;;
12429;SDS011;6279;42.192;24.326;2022-12-18T04:41:19;5.80;;;4.23;;
12429;SDS011;6279;42.192;24.326;2022-12-18T04:43:44;4.73;;;3.73;;
12429;SDS011;6279;42.192;24.326;2022-12-18T04:46:10;4.20;;;3.40;;
12429;SDS011;6279;42.192;24.326;2022-12-18T04:48:35;5.70;;;3.70;;
12429;SDS011;6279;42.192;24.326;2022-12-18T04:51:02;4.57;;;3.33;;
12429;SDS011;6279;42.192;24.326;2022-12-18T04:53:28;4.77;;;3.40;;
12429;SDS011;6279;42.192;24.326;2022-12-18T04:56:03;4.77;;;4.07;;
12429;SDS011;6279;42.192;24.326;2022-12-18T04:58:29;4.57;;;4.07;;
12429;SDS011;6279;42.192;24.326;2022-12-18T05:00:54;4.63;;;3.57;;
12429;SDS011;6279;42.192;24.326;2022-12-18T05:03:20;5.07;;;4.23;;
12429;SDS011;6279;42.192;24.326;2022-12-18T05:05:48;7.33;;;4.70;;
12429;SDS011;6279;42.192;24.326;2022-12-18T05:08:15;5.63;;;3.90;;
12429;SDS011;6279;42.192;24.326;2022-12-18T05:10:40;5.93;;;4.70;;
12429;SDS011;6279;42.192;24.326;2022-12-18T05:13:05;7.47;;;5.10;;
12429;SDS011;6279;42.192;24.326;2022-12-18T05:15:31;7.07;;;5.10;;
12429;SDS011;6279;42.192;24.326;2022-12-18T05:17:58;5.77;;;4.57;;
12429;SDS011;6279;42.192;24.326;2022-12-18T05:20:24;8.23;;;5.00;;
12429;SDS011;6279;42.192;24.326;2022-12-18T05:22:50;6.93;;;5.17;;
12429;SDS011;6279;42.192;24.326;2022-12-18T05:25:16;6.87;;;5.27;;
12429;SDS011;6279;42.192;24.326;2022-12-18T05:27:42;6.87;;;5.30;;
12429;SDS011;6279;42.192;24.326;2022-12-18T05:30:09;6.77;;;4.90;;
12429;SDS011;6279;42.192;24.326;2022-12-18T05:32:35;7.60;;;5.90;;
12429;SDS011;6279;42.192;24.326;2022-12-18T05:35:00;6.53;;;5.07;;
12429;SDS011;6279;42.192;24.326;2022-12-18T05:37:28;8.33;;;5.27;;
12429;SDS011;6279;42.192;24.326;2022-12-18T05:39:53;6.27;;;4.87;;
12429;SDS011;6279;42.192;24.326;2022-12-18T05:42:18;6.03;;;5.13;;
12429;SDS011;6279;42.192;24.326;2022-12-18T05:44:44;7.20;;;5.10;;
12429;SDS011;6279;42.192;24.326;2022-12-18T05:47:09;6.87;;;4.30;;
12429;SDS011;6279;42.192;24.326;2022-12-18T05:49:35;9.40;;;5.10;;
12429;SDS011;6279;42.192;24.326;2022-12-18T05:52:00;6.40;;;4.77;;
12429;SDS011;6279;42.192;24.326;2022-12-18T05:54:28;5.47;;;4.37;;
12429;SDS011;6279;42.192;24.326;2022-12-18T05:56:54;6.57;;;4.90;;
12429;SDS011;6279;42.192;24.326;2022-12-18T05:59:20;5.27;;;4.30;;
12429;SDS011;6279;42.192;24.326;2022-12-18T06:01:46;6.83;;;4.27;;
12429;SDS011;6279;42.192;24.326;2022-12-18T06:04:11;7.80;;;5.53;;
12429;SDS011;6279;42.192;24.326;2022-12-18T06:06:37;6.13;;;5.03;;
12429;SDS011;6279;42.192;24.326;2022-12-18T06:09:02;6.40;;;4.97;;
12429;SDS011;6279;42.192;24.326;2022-12-18T06:11:33;8.40;;;4.63;;
12429;SDS011;6279;42.192;24.326;2022-12-18T06:13:59;7.73;;;4.93;;
12429;SDS011;6279;42.192;24.326;2022-12-18T06:16:25;7.10;;;5.70;;
12429;SDS011;6279;42.192;24.326;2022-12-18T06:18:52;8.57;;;5.63;;
12429;SDS011;6279;42.192;24.326;2022-12-18T06:21:17;8.17;;;4.87;;
12429;SDS011;6279;42.192;24.326;2022-12-18T06:23:43;7.63;;;6.23;;
12429;SDS011;6279;42.192;24.326;2022-12-18T06:26:10;13.90;;;9.40;;
12429;SDS011;6279;42.192;24.326;2022-12-18T06:28:36;8.50;;;5.60;;
12429;SDS011;6279;42.192;24.326;2022-12-18T06:31:02;8.60;;;7.67;;
12429;SDS011;6279;42.192;24.326;2022-12-18T06:33:29;8.57;;;7.47;;
12429;SDS011;6279;42.192;24.326;2022-12-18T06:35:59;10.07;;;7.40;;
12429;SDS011;6279;42.192;24.326;2022-12-18T06:38:26;8.47;;;6.17;;
12429;SDS011;6279;42.192;24.326;2022-12-18T06:40:51;9.43;;;4.97;;
12429;SDS011;6279;42.192;24.326;2022-12-18T06:43:17;6.67;;;4.97;;
12429;SDS011;6279;42.192;24.326;2022-12-18T06:45:42;6.13;;;5.10;;
12429;SDS011;6279;42.192;24.326;2022-12-18T06:48:08;5.37;;;4.67;;
12429;SDS011;6279;42.192;24.326;2022-12-18T06:50:33;7.70;;;6.07;;
12429;SDS011;6279;42.192;24.326;2022-12-18T06:52:58;9.13;;;5.60;;
12429;SDS011;6279;42.192;24.326;2022-12-18T06:55:24;7.90;;;5.80;;
12429;SDS011;6279;42.192;24.326;2022-12-18T06:57:50;6.87;;;5.17;;
12429;SDS011;6279;42.192;24.326;2022-12-18T07:00:15;9.00;;;5.43;;
12429;SDS011;6279;42.192;24.326;2022-12-18T07:02:41;6.53;;;4.97;;
12429;SDS011;6279;42.192;24.326;2022-12-18T07:05:06;8.13;;;5.20;;
12429;SDS011;6279;42.192;24.326;2022-12-18T07:07:33;8.47;;;6.00;;
12429;SDS011;6279;42.192;24.326;2022-12-18T07:09:59;11.23;;;7.43;;
12429;SDS011;6279;42.192;24.326;2022-12-18T07:12:24;13.93;;;8.43;;
12429;SDS011;6279;42.192;24.326;2022-12-18T07:14:49;11.60;;;6.90;;
12429;SDS011;6279;42.192;24.326;2022-12-18T07:17:15;9.43;;;6.00;;
12429;SDS011;6279;42.192;24.326;2022-12-18T07:19:40;9.93;;;6.67;;
12429;SDS011;6279;42.192;24.326;2022-12-18T07:22:05;10.10;;;6.47;;
12429;SDS011;6279;42.192;24.326;2022-12-18T07:24:32;9.37;;;6.70;;
12429;SDS011;6279;42.192;24.326;2022-12-18T07:26:58;8.20;;;6.10;;
12429;SDS011;6279;42.192;24.326;2022-12-18T07:29:24;10.40;;;7.23;;
12429;SDS011;6279;42.192;24.326;2022-12-18T07:31:49;11.33;;;6.43;;
12429;SDS011;6279;42.192;24.326;2022-12-18T07:34:15;9.63;;;6.70;;
12429;SDS011;6279;42.192;24.326;2022-12-18T07:36:40;10.40;;;6.70;;
12429;SDS011;6279;42.192;24.326;2022-12-18T07:39:05;15.27;;;8.40;;
12429;SDS011;6279;42.192;24.326;2022-12-18T07:41:31;9.47;;;6.03;;
12429;SDS011;6279;42.192;24.326;2022-12-18T07:43:56;10.27;;;6.00;;
12429;SDS011;6279;42.192;24.326;2022-12-18T07:46:22;12.70;;;8.20;;
12429;SDS011;6279;42.192;24.326;2022-12-18T07:48:47;13.43;;;8.40;;
12429;SDS011;6279;42.192;24.326;2022-12-18T07:51:13;10.80;;;6.13;;
12429;SDS011;6279;42.192;24.326;2022-12-18T07:53:39;7.97;;;6.07;;
12429;SDS011;6279;42.192;24.326;2022-12-18T07:56:05;9.30;;;7.07;;
12429;SDS011;6279;42.192;24.326;2022-12-18T07:58:33;10.13;;;6.90;;
12429;SDS011;6279;42.192;24.326;2022-12-18T08:01:05;10.40;;;8.07;;
12429;SDS011;6279;42.192;24.326;2022-12-18T08:03:32;7.63;;;5.87;;
12429;SDS011;6279;42.192;24.326;2022-12-18T08:05:58;8.10;;;6.50;;
12429;SDS011;6279;42.192;24.326;2022-12-18T08:08:25;7.70;;;5.40;;
12429;SDS011;6279;42.192;24.326;2022-12-18T08:10:50;7.57;;;5.43;;
12429;SDS011;6279;42.192;24.326;2022-12-18T08:13:15;6.43;;;4.73;;
12429;SDS011;6279;42.192;24.326;2022-12-18T08:15:41;8.30;;;5.47;;
12429;SDS011;6279;42.192;24.326;2022-12-18T08:18:06;10.27;;;7.43;;
12429;SDS011;6279;42.192;24.326;2022-12-18T08:20:32;8.17;;;6.50;;
12429;SDS011;6279;42.192;24.326;2022-12-18T08:22:57;9.30;;;5.90;;
12429;SDS011;6279;42.192;24.326;2022-12-18T08:25:23;8.37;;;6.17;;
12429;SDS011;6279;42.192;24.326;2022-12-18T08:27:48;9.33;;;8.00;;
12429;SDS011;6279;42.192;24.326;2022-12-18T08:30:14;12.33;;;7.80;;
12429;SDS011;6279;42.192;24.326;2022-12-18T08:32:39;11.63;;;8.10;;
12429;SDS011;6279;42.192;24.326;2022-12-18T08:35:04;11.13;;;8.23;;
12429;SDS011;6279;42.192;24.326;2022-12-18T08:37:30;9.47;;;7.40;;
12429;SDS011;6279;42.192;24.326;2022-12-18T08:39:56;9.53;;;7.43;;
12429;SDS011;6279;42.192;24.326;2022-12-18T08:42:21;9.50;;;6.60;;
12429;SDS011;6279;42.192;24.326;2022-12-18T08:45:05;13.33;;;7.53;;
12429;SDS011;6279;42.192;24.326;2022-12-18T08:47:31;8.90;;;6.67;;
12429;SDS011;6279;42.192;24.326;2022-12-18T08:49:56;7.73;;;5.73;;
12429;SDS011;6279;42.192;24.326;2022-12-18T08:52:22;8.37;;;6.20;;
12429;SDS011;6279;42.192;24.326;2022-12-18T08:54:47;9.90;;;7.37;;
12429;SDS011;6279;42.192;24.326;2022-12-18T08:57:12;9.23;;;7.33;;
12429;SDS011;6279;42.192;24.326;2022-12-18T08:59:38;9.80;;;7.60;;
12429;SDS011;6279;42.192;24.326;2022-12-18T09:02:03;9.13;;;7.13;;
12429;SDS011;6279;42.192;24.326;2022-12-18T09:04:29;8.70;;;6.47;;
12429;SDS011;6279;42.192;24.326;2022-12-18T09:06:54;9.43;;;6.77;;
12429;SDS011;6279;42.192;24.326;2022-12-18T09:09:19;13.23;;;8.27;;
12429;SDS011;6279;42.192;24.326;2022-12-18T09:11:45;9.23;;;6.67;;
12429;SDS011;6279;42.192;24.326;2022-12-18T09:14:10;18.13;;;11.00;;
12429;SDS011;6279;42.192;24.326;2022-12-18T09:16:35;14.10;;;10.40;;
12429;SDS011;6279;42.192;24.326;2022-12-18T09:19:02;11.17;;;7.93;;
12429;SDS011;6279;42.192;24.326;2022-12-18T09:21:30;7.43;;;5.77;;
12429;SDS011;6279;42.192;24.326;2022-12-18T09:23:57;5.03;;;4.53;;
12429;SDS011;6279;42.192;24.326;2022-12-18T09:26:24;7.13;;;5.17;;
12429;SDS011;6279;42.192;24.326;2022-12-18T09:28:50;8.50;;;5.40;;
12429;SDS011;6279;42.192;24.326;2022-12-18T09:31:17;4.83;;;4.33;;
12429;SDS011;6279;42.192;24.326;2022-12-18T09:33:43;6.70;;;5.27;;
12429;SDS011;6279;42.192;24.326;2022-12-18T09:36:11;5.90;;;4.47;;
12429;SDS011;6279;42.192;24.326;2022-12-18T09:38:38;8.17;;;5.07;;
12429;SDS011;6279;42.192;24.326;2022-12-18T09:46:44;5.87;;;4.80;;
12429;SDS011;6279;42.192;24.326;2022-12-18T09:49:14;5.90;;;4.80;;
12429;SDS011;6279;42.192;24.326;2022-12-18T09:51:44;6.30;;;4.30;;
12429;SDS011;6279;42.192;24.326;2022-12-18T09:57:10;6.93;;;5.00;;
12429;SDS011;6279;42.192;24.326;2022-12-18T09:59:39;6.37;;;4.90;;
12429;SDS011;6279;42.192;24.326;2022-12-18T10:02:17;8.87;;;6.40;;
12429;SDS011;6279;42.192;24.326;2022-12-18T10:04:48;9.20;;;6.90;;
12429;SDS011;6279;42.192;24.326;2022-12-18T10:07:31;8.67;;;6.50;;
12429;SDS011;6279;42.192;24.326;2022-12-18T10:10:13;7.20;;;6.03;;
12429;SDS011;6279;42.192;24.326;2022-12-18T10:13:02;13.13;;;8.53;;
12429;SDS011;6279;42.192;24.326;2022-12-18T10:15:52;7.87;;;6.87;;
12429;SDS011;6279;42.192;24.326;2022-12-18T10:20:55;8.23;;;6.20;;
12429;SDS011;6279;42.192;24.326;2022-12-18T10:23:46;10.33;;;6.60;;
12429;SDS011;6279;42.192;24.326;2022-12-18T10:26:42;12.77;;;8.60;;
12429;SDS011;6279;42.192;24.326;2022-12-18T10:29:13;7.03;;;5.73;;
12429;SDS011;6279;42.192;24.326;2022-12-18T10:31:40;7.27;;;5.83;;
12429;SDS011;6279;42.192;24.326;2022-12-18T10:34:09;7.57;;;5.87;;
12429;SDS011;6279;42.192;24.326;2022-12-18T10:36:35;14.43;;;8.03;;
12429;SDS011;6279;42.192;24.326;2022-12-18T10:39:14;9.30;;;7.30;;
12429;SDS011;6279;42.192;24.326;2022-12-18T10:41:41;10.80;;;6.80;;
12429;SDS011;6279;42.192;24.326;2022-12-18T10:44:20;9.73;;;7.87;;
12429;SDS011;6279;42.192;24.326;2022-12-18T10:46:50;8.97;;;6.50;;
12429;SDS011;6279;42.192;24.326;2022-12-18T10:49:27;10.33;;;7.77;;
12429;SDS011;6279;42.192;24.326;2022-12-18T10:52:04;11.40;;;8.20;;
12429;SDS011;6279;42.192;24.326;2022-12-18T10:54:39;10.40;;;7.20;;
12429;SDS011;6279;42.192;24.326;2022-12-18T10:57:14;15.10;;;10.70;;
12429;SDS011;6279;42.192;24.326;2022-12-18T10:59:52;10.97;;;7.33;;
12429;SDS011;6279;42.192;24.326;2022-12-18T11:02:33;8.50;;;5.63;;
12429;SDS011;6279;42.192;24.326;2022-12-18T11:05:00;7.93;;;6.27;;
12429;SDS011;6279;42.192;24.326;2022-12-18T11:07:26;6.40;;;5.27;;
12429;SDS011;6279;42.192;24.326;2022-12-18T11:10:17;9.87;;;6.13;;
12429;SDS011;6279;42.192;24.326;2022-12-18T11:12:43;7.63;;;5.97;;
12429;SDS011;6279;42.192;24.326;2022-12-18T11:15:20;8.03;;;5.70;;
12429;SDS011;6279;42.192;24.326;2022-12-18T11:17:49;7.37;;;6.03;;
12429;SDS011;6279;42.192;24.326;2022-12-18T11:20:35;6.83;;;5.43;;
12429;SDS011;6279;42.192;24.326;2022-12-18T11:23:05;6.03;;;4.80;;
12429;SDS011;6279;42.192;24.326;2022-12-18T11:25:38;7.53;;;5.50;;
12429;SDS011;6279;42.192;24.326;2022-12-18T11:28:05;6.47;;;5.20;;
12429;SDS011;6279;42.192;24.326;2022-12-18T11:30:49;6.87;;;5.33;;
12429;SDS011;6279;42.192;24.326;2022-12-18T11:33:33;7.73;;;6.13;;
12429;SDS011;6279;42.192;24.326;2022-12-18T11:36:00;8.70;;;6.47;;
12429;SDS011;6279;42.192;24.326;2022-12-18T11:38:29;8.67;;;6.90;;
12429;SDS011;6279;42.192;24.326;2022-12-18T11:41:01;8.43;;;6.60;;
12429;SDS011;6279;42.192;24.326;2022-12-18T11:44:07;8.23;;;6.33;;
12429;SDS011;6279;42.192;24.326;2022-12-18T11:46:32;7.07;;;5.97;;
12429;SDS011;6279;42.192;24.326;2022-12-18T11:49:15;9.10;;;6.97;;
12429;SDS011;6279;42.192;24.326;2022-12-18T11:51:51;11.30;;;5.60;;
12429;SDS011;6279;42.192;24.326;2022-12-18T11:54:39;9.37;;;6.50;;
12429;SDS011;6279;42.192;24.326;2022-12-18T11:59:40;10.40;;;7.20;;
12429;SDS011;6279;42.192;24.326;2022-12-18T12:10:41;10.27;;;7.27;;
12429;SDS011;6279;42.192;24.326;2022-12-18T12:13:29;12.53;;;7.73;;
12429;SDS011;6279;42.192;24.326;2022-12-18T12:16:02;17.37;;;12.07;;
12429;SDS011;6279;42.192;24.326;2022-12-18T12:35:14;9.70;;;7.17;;
12429;SDS011;6279;42.192;24.326;2022-12-18T12:40:33;10.27;;;7.97;;
12429;SDS011;6279;42.192;24.326;2022-12-18T12:43:22;11.53;;;7.50;;
12429;SDS011;6279;42.192;24.326;2022-12-18T12:45:53;10.97;;;7.87;;
12429;SDS011;6279;42.192;24.326;2022-12-18T12:48:31;9.57;;;6.47;;
12429;SDS011;6279;42.192;24.326;2022-12-18T12:50:58;9.73;;;7.17;;
12429;SDS011;6279;42.192;24.326;2022-12-18T12:53:29;12.80;;;8.90;;
12429;SDS011;6279;42.192;24.326;2022-12-18T12:55:57;11.80;;;8.37;;
12429;SDS011;6279;42.192;24.326;2022-12-18T13:01:05;12.83;;;8.33;;
12429;SDS011;6279;42.192;24.326;2022-12-18T13:04:03;11.83;;;7.97;;
12429;SDS011;6279;42.192;24.326;2022-12-18T13:06:44;14.47;;;8.90;;
12429;SDS011;6279;42.192;24.326;2022-12-18T13:09:15;16.83;;;10.60;;
12429;SDS011;6279;42.192;24.326;2022-12-18T13:11:47;19.00;;;12.80;;
12429;SDS011;6279;42.192;24.326;2022-12-18T13:14:36;18.07;;;10.67;;
12429;SDS011;6279;42.192;24.326;2022-12-18T13:20:13;17.40;;;10.07;;
12429;SDS011;6279;42.192;24.326;2022-12-18T13:22:46;17.77;;;9.83;;
12429;SDS011;6279;42.192;24.326;2022-12-18T13:25:29;18.23;;;10.60;;
12429;SDS011;6279;42.192;24.326;2022-12-18T13:28:00;23.67;;;12.33;;
12429;SDS011;6279;42.192;24.326;2022-12-18T13:36:02;16.77;;;10.00;;
12429;SDS011;6279;42.192;24.326;2022-12-18T13:38:40;14.07;;;9.77;;
12429;SDS011;6279;42.192;24.326;2022-12-18T13:43:48;14.67;;;9.20;;
12429;SDS011;6279;42.192;24.326;2022-12-18T13:46:19;16.87;;;10.37;;
12429;SDS011;6279;42.192;24.326;2022-12-18T13:51:39;12.53;;;8.33;;
12429;SDS011;6279;42.192;24.326;2022-12-18T13:54:25;14.83;;;9.37;;
12429;SDS011;6279;42.192;24.326;2022-12-18T13:56:53;12.47;;;8.83;;
12429;SDS011;6279;42.192;24.326;2022-12-18T13:59:26;12.90;;;8.93;;
12429;SDS011;6279;42.192;24.326;2022-12-18T14:02:00;11.27;;;8.27;;
12429;SDS011;6279;42.192;24.326;2022-12-18T14:04:35;10.93;;;7.77;;
12429;SDS011;6279;42.192;24.326;2022-12-18T14:07:05;10.73;;;8.60;;
12429;SDS011;6279;42.192;24.326;2022-12-18T14:09:34;12.07;;;8.03;;
12429;SDS011;6279;42.192;24.326;2022-12-18T14:12:02;13.20;;;8.80;;
12429;SDS011;6279;42.192;24.326;2022-12-18T14:14:47;17.30;;;10.00;;
12429;SDS011;6279;42.192;24.326;2022-12-18T14:17:16;13.23;;;8.90;;
12429;SDS011;6279;42.192;24.326;2022-12-18T14:19:42;21.57;;;12.27;;
12429;SDS011;6279;42.192;24.326;2022-12-18T14:22:23;25.47;;;13.53;;
12429;SDS011;6279;42.192;24.326;2022-12-18T14:27:37;23.83;;;13.93;;
12429;SDS011;6279;42.192;24.326;2022-12-18T14:30:18;21.87;;;11.63;;
12429;SDS011;6279;42.192;24.326;2022-12-18T14:33:03;33.87;;;18.30;;
12429;SDS011;6279;42.192;24.326;2022-12-18T14:35:31;24.57;;;13.63;;
12429;SDS011;6279;42.192;24.326;2022-12-18T14:40:41;15.07;;;8.73;;
12429;SDS011;6279;42.192;24.326;2022-12-18T14:43:10;11.47;;;8.40;;
12429;SDS011;6279;42.192;24.326;2022-12-18T14:45:43;13.27;;;8.60;;
12429;SDS011;6279;42.192;24.326;2022-12-18T14:48:15;12.63;;;9.10;;
12429;SDS011;6279;42.192;24.326;2022-12-18T14:50:53;16.20;;;9.93;;
12429;SDS011;6279;42.192;24.326;2022-12-18T14:56:12;13.60;;;10.50;;
12429;SDS011;6279;42.192;24.326;2022-12-18T14:58:48;13.67;;;10.13;;
12429;SDS011;6279;42.192;24.326;2022-12-18T15:03:52;20.60;;;14.40;;
12429;SDS011;6279;42.192;24.326;2022-12-18T15:06:27;13.17;;;9.63;;
12429;SDS011;6279;42.192;24.326;2022-12-18T15:08:55;12.57;;;9.43;;
12429;SDS011;6279;42.192;24.326;2022-12-18T15:11:28;14.80;;;9.87;;
12429;SDS011;6279;42.192;24.326;2022-12-18T15:13:54;17.03;;;10.30;;
12429;SDS011;6279;42.192;24.326;2022-12-18T15:16:19;14.67;;;10.17;;
12429;SDS011;6279;42.192;24.326;2022-12-18T15:18:45;10.33;;;7.43;;
12429;SDS011;6279;42.192;24.326;2022-12-18T15:21:15;12.50;;;8.87;;
12429;SDS011;6279;42.192;24.326;2022-12-18T15:26:09;14.97;;;10.03;;
12429;SDS011;6279;42.192;24.326;2022-12-18T15:31:02;14.17;;;10.10;;
12429;SDS011;6279;42.192;24.326;2022-12-18T15:33:35;15.00;;;9.40;;
12429;SDS011;6279;42.192;24.326;2022-12-18T15:36:03;12.87;;;9.00;;
12429;SDS011;6279;42.192;24.326;2022-12-18T15:38:33;11.57;;;9.33;;
12429;SDS011;6279;42.192;24.326;2022-12-18T15:40:58;31.53;;;22.90;;
12429;SDS011;6279;42.192;24.326;2022-12-18T15:43:24;17.40;;;12.20;;
12429;SDS011;6279;42.192;24.326;2022-12-18T15:45:59;13.37;;;9.27;;
12429;SDS011;6279;42.192;24.326;2022-12-18T15:48:26;17.07;;;10.20;;
12429;SDS011;6279;42.192;24.326;2022-12-18T15:50:51;13.07;;;9.63;;
12429;SDS011;6279;42.192;24.326;2022-12-18T15:53:18;18.73;;;12.23;;
12429;SDS011;6279;42.192;24.326;2022-12-18T15:55:44;21.10;;;14.80;;
12429;SDS011;6279;42.192;24.326;2022-12-18T15:58:28;17.67;;;12.47;;
12429;SDS011;6279;42.192;24.326;2022-12-18T16:00:54;17.57;;;11.37;;
12429;SDS011;6279;42.192;24.326;2022-12-18T16:03:22;16.60;;;10.40;;
12429;SDS011;6279;42.192;24.326;2022-12-18T16:05:48;18.00;;;10.87;;
12429;SDS011;6279;42.192;24.326;2022-12-18T16:08:13;14.47;;;9.73;;
12429;SDS011;6279;42.192;24.326;2022-12-18T16:10:38;13.47;;;9.70;;
12429;SDS011;6279;42.192;24.326;2022-12-18T16:13:04;19.90;;;12.43;;
12429;SDS011;6279;42.192;24.326;2022-12-18T16:15:29;13.73;;;9.80;;
12429;SDS011;6279;42.192;24.326;2022-12-18T16:17:55;16.03;;;10.63;;
12429;SDS011;6279;42.192;24.326;2022-12-18T16:20:21;16.03;;;10.47;;
12429;SDS011;6279;42.192;24.326;2022-12-18T16:22:47;14.57;;;9.90;;
12429;SDS011;6279;42.192;24.326;2022-12-18T16:25:34;16.70;;;11.03;;
12429;SDS011;6279;42.192;24.326;2022-12-18T16:27:59;15.40;;;10.50;;